createdAt,value
2018-01-11T00:00:57.113Z,0
2018-01-11T00:01:56.975Z,0
2018-01-11T00:02:57.240Z,0
2018-01-11T00:03:57.524Z,0
2018-01-11T00:04:57.521Z,0
2018-01-11T00:05:57.291Z,0
2018-01-11T00:06:57.299Z,0
2018-01-11T00:07:57.573Z,0
2018-01-11T00:08:57.592Z,0
2018-01-11T00:09:57.352Z,0
2018-01-11T00:10:57.625Z,0
2018-01-11T00:11:57.135Z,0
2018-01-11T00:12:57.652Z,0
2018-01-11T00:13:57.414Z,0
2018-01-11T00:14:57.685Z,0
2018-01-11T00:15:57.497Z,0
2018-01-11T00:16:57.463Z,0
2018-01-11T00:17:57.224Z,0
2018-01-11T00:18:57.749Z,0
2018-01-11T00:19:57.512Z,0
2018-01-11T00:20:57.783Z,0
2018-01-11T00:21:57.296Z,0
2018-01-11T00:22:57.557Z,0
2018-01-11T00:23:57.319Z,0
2018-01-11T00:24:57.839Z,0
2018-01-11T00:25:57.879Z,0
2018-01-11T00:26:57.627Z,0
2018-01-11T00:27:57.387Z,0
2018-01-11T00:28:57.906Z,0
2018-01-11T00:29:57.422Z,0
2018-01-11T00:30:57.737Z,0
2018-01-11T00:31:57.727Z,0
2018-01-11T00:32:57.466Z,0
2018-01-11T00:33:57.728Z,0
2018-01-11T00:34:57.748Z,0
2018-01-11T00:35:58.014Z,0
2018-01-11T00:36:58.029Z,0
2018-01-11T00:37:57.796Z,0
2018-01-11T00:38:58.067Z,0
2018-01-11T00:39:57.824Z,0
2018-01-11T00:40:57.591Z,0
2018-01-11T00:41:57.857Z,0
2018-01-11T00:42:57.901Z,0
2018-01-11T00:43:57.901Z,0
2018-01-11T00:44:58.161Z,0
2018-01-11T00:45:57.717Z,0
2018-01-11T00:46:57.936Z,0
2018-01-11T00:47:57.972Z,0
2018-01-11T00:48:57.720Z,0
2018-01-11T00:49:57.982Z,0
2018-01-11T00:50:57.999Z,0
2018-01-11T00:51:58.267Z,0
2018-01-11T00:52:57.775Z,0
2018-01-11T00:53:58.047Z,0
2018-01-11T00:54:58.320Z,0
2018-01-11T00:55:58.081Z,0
2018-01-11T00:56:57.842Z,0
2018-01-11T00:57:58.111Z,0
2018-01-11T00:58:58.379Z,0
2018-01-11T00:59:57.640Z,0
2018-01-11T01:00:58.496Z,0
2018-01-11T01:01:58.177Z,0
2018-01-11T01:02:57.939Z,0
2018-01-11T01:03:58.452Z,0
2018-01-11T01:04:58.215Z,0
2018-01-11T01:05:57.999Z,0
2018-01-11T01:06:58.507Z,0
2018-01-11T01:07:58.270Z,0
2018-01-11T01:08:58.283Z,0
2018-01-11T01:09:58.309Z,0
2018-01-11T01:10:57.809Z,0
2018-01-11T01:11:58.330Z,0
2018-01-11T01:12:58.595Z,0
2018-01-11T01:13:58.123Z,0
2018-01-11T01:14:58.382Z,0
2018-01-11T01:15:58.448Z,0
2018-01-11T01:16:58.662Z,0
2018-01-11T01:17:58.184Z,0
2018-01-11T01:18:58.437Z,0
2018-01-11T01:19:58.709Z,0
2018-01-11T01:20:58.472Z,0
2018-01-11T01:21:58.743Z,0
2018-01-11T01:22:58.250Z,0
2018-01-11T01:23:58.263Z,0
2018-01-11T01:24:58.281Z,0
2018-01-11T01:25:58.802Z,0
2018-01-11T01:26:58.825Z,0
2018-01-11T01:27:58.350Z,0
2018-01-11T01:28:58.600Z,0
2018-01-11T01:29:58.871Z,0
2018-01-11T01:30:58.930Z,0
2018-01-11T01:31:58.387Z,0
2018-01-11T01:32:58.914Z,0
2018-01-11T01:33:58.676Z,0
2018-01-11T01:34:58.435Z,0
2018-01-11T01:35:58.741Z,0
2018-01-11T01:36:58.719Z,0
2018-01-11T01:37:58.735Z,0
2018-01-11T01:38:58.766Z,0
2018-01-11T01:39:59.024Z,0
2018-01-11T01:40:59.781Z,0
2018-01-11T01:41:58.796Z,0
2018-01-11T01:42:58.812Z,0
2018-01-11T01:43:58.830Z,0
2018-01-11T01:44:59.100Z,0
2018-01-11T01:45:58.964Z,0
2018-01-11T01:46:58.878Z,0
2018-01-11T01:47:58.943Z,0
2018-01-11T01:48:58.914Z,0
2018-01-11T01:49:59.181Z,0
2018-01-11T01:50:58.942Z,0
2018-01-11T01:51:58.954Z,0
2018-01-11T01:52:58.973Z,0
2018-01-11T01:53:59.246Z,0
2018-01-11T01:54:59.008Z,0
2018-01-11T01:55:59.017Z,0
2018-01-11T01:56:58.783Z,0
2018-01-11T01:57:59.065Z,0
2018-01-11T01:58:59.327Z,0
2018-01-11T01:59:59.076Z,0
2018-01-11T02:00:58.897Z,0
2018-01-11T02:01:58.606Z,0
2018-01-11T02:02:59.382Z,0
2018-01-11T02:03:59.405Z,0
2018-01-11T02:04:59.160Z,0
2018-01-11T02:05:59.436Z,0
2018-01-11T02:06:59.198Z,0
2018-01-11T02:07:59.454Z,0
2018-01-11T02:08:59.474Z,0
2018-01-11T02:09:59.232Z,0
2018-01-11T02:10:59.513Z,0
2018-01-11T02:11:59.276Z,0
2018-01-11T02:12:59.028Z,0
2018-01-11T02:13:59.298Z,0
2018-01-11T02:14:59.569Z,0
2018-01-11T02:15:59.584Z,0
2018-01-11T02:16:59.601Z,0
2018-01-11T02:17:59.354Z,0
2018-01-11T02:18:59.677Z,0
2018-01-11T02:19:59.642Z,0
2018-01-11T02:20:59.424Z,0
2018-01-11T02:21:59.685Z,0
2018-01-11T02:22:59.446Z,0
2018-01-11T02:23:59.205Z,0
2018-01-11T02:24:59.470Z,0
2018-01-11T02:25:59.486Z,0
2018-01-11T02:26:59.245Z,0
2018-01-11T02:28:02.556Z,0
2018-01-11T02:28:59.274Z,0
2018-01-11T02:29:59.545Z,0
2018-01-11T02:30:59.826Z,0
2018-01-11T02:31:59.876Z,0
2018-01-11T02:32:59.611Z,0
2018-01-11T02:33:59.407Z,0
2018-01-11T02:34:59.873Z,0
2018-01-11T02:35:59.643Z,0
2018-01-11T02:36:59.686Z,0
2018-01-11T02:37:59.666Z,0
2018-01-11T02:38:59.690Z,0
2018-01-11T02:39:59.702Z,0
2018-01-11T02:40:59.727Z,0
2018-01-11T02:41:59.724Z,0
2018-01-11T02:42:59.994Z,0
2018-01-11T02:44:18.980Z,0
2018-01-11T02:45:31.625Z,0
2018-01-11T02:45:59.540Z,0
2018-01-11T02:47:00.059Z,0
2018-01-11T02:47:59.816Z,0
2018-01-11T02:49:01.935Z,0
2018-01-11T02:49:59.881Z,0
2018-01-11T02:50:59.360Z,0
2018-01-11T02:51:59.633Z,0
2018-01-11T02:53:00.149Z,0
2018-01-11T02:53:59.907Z,0
2018-01-11T02:54:59.680Z,0
2018-01-11T02:55:59.951Z,0
2018-01-11T02:56:59.953Z,0
2018-01-11T02:58:00.228Z,0
2018-01-11T02:58:59.481Z,0
2018-01-11T03:00:00.275Z,0
2018-01-11T03:01:00.287Z,0
2018-01-11T03:01:59.781Z,0
2018-01-11T03:02:59.541Z,0
2018-01-11T03:04:00.116Z,0
2018-01-11T03:05:00.334Z,0
2018-01-11T03:05:59.837Z,0
2018-01-11T03:07:00.111Z,0
2018-01-11T03:08:00.124Z,0
2018-01-11T03:09:00.390Z,0
2018-01-11T03:10:00.404Z,0
2018-01-11T03:11:00.178Z,0
2018-01-11T03:12:00.484Z,0
2018-01-11T03:13:00.452Z,0
2018-01-11T03:14:00.214Z,0
2018-01-11T03:15:00.234Z,0
2018-01-11T03:16:00.510Z,0
2018-01-11T03:17:00.509Z,0
2018-01-11T03:18:00.522Z,0
2018-01-11T03:19:00.593Z,0
2018-01-11T03:20:00.565Z,0
2018-01-11T03:21:00.575Z,0
2018-01-11T03:22:00.537Z,0
2018-01-11T03:23:00.096Z,0
2018-01-11T03:24:00.380Z,0
2018-01-11T03:25:00.136Z,0
2018-01-11T03:26:00.142Z,0
2018-01-11T03:27:00.156Z,0
2018-01-11T03:28:00.172Z,0
2018-01-11T03:29:00.444Z,0
2018-01-11T03:30:00.455Z,0
2018-01-11T03:31:00.229Z,0
2018-01-11T03:32:00.490Z,0
2018-01-11T03:33:00.500Z,0
2018-01-11T03:34:00.818Z,0
2018-01-11T03:35:00.282Z,0
2018-01-11T03:36:00.822Z,0
2018-01-11T03:37:00.564Z,0
2018-01-11T03:38:00.585Z,0
2018-01-11T03:39:00.343Z,0
2018-01-11T03:40:00.864Z,0
2018-01-11T03:41:00.624Z,0
2018-01-11T03:42:00.894Z,0
2018-01-11T03:43:00.912Z,0
2018-01-11T03:44:00.673Z,0
2018-01-11T03:45:00.942Z,0
2018-01-11T03:46:00.448Z,0
2018-01-11T03:47:00.972Z,0
2018-01-11T03:48:00.740Z,0
2018-01-11T03:49:01.053Z,0
2018-01-11T03:50:00.767Z,0
2018-01-11T03:51:01.040Z,0
2018-01-11T03:52:01.049Z,0
2018-01-11T03:53:00.556Z,0
2018-01-11T03:54:01.080Z,0
2018-01-11T03:55:00.838Z,0
2018-01-11T03:56:01.112Z,0
2018-01-11T03:57:00.886Z,0
2018-01-11T03:58:01.144Z,0
2018-01-11T03:59:01.157Z,0
2018-01-11T04:00:00.919Z,0
2018-01-11T04:01:01.189Z,0
2018-01-11T04:02:00.715Z,0
2018-01-11T04:03:00.965Z,0
2018-01-11T04:04:01.037Z,0
2018-01-11T04:05:01.246Z,0
2018-01-11T04:06:00.777Z,0
2018-01-11T04:07:01.289Z,0
2018-01-11T04:08:01.052Z,0
2018-01-11T04:09:01.057Z,0
2018-01-11T04:10:01.323Z,0
2018-01-11T04:11:00.863Z,0
2018-01-11T04:12:00.843Z,0
2018-01-11T04:13:01.374Z,0
2018-01-11T04:14:01.145Z,0
2018-01-11T04:15:00.893Z,0
2018-01-11T04:16:01.412Z,0
2018-01-11T04:17:00.922Z,0
2018-01-11T04:18:01.440Z,0
2018-01-11T04:19:01.549Z,0
2018-01-11T04:20:01.473Z,0
2018-01-11T04:21:01.234Z,0
2018-01-11T04:22:01.298Z,0
2018-01-11T04:23:01.015Z,0
2018-01-11T04:24:01.534Z,0
2018-01-11T04:25:01.569Z,0
2018-01-11T04:26:01.579Z,0
2018-01-11T04:27:01.084Z,0
2018-01-11T04:28:01.594Z,0
2018-01-11T04:29:01.367Z,0
2018-01-11T04:30:01.636Z,0
2018-01-11T04:31:01.148Z,0
2018-01-11T04:32:01.408Z,0
2018-01-11T04:33:01.164Z,0
2018-01-11T04:34:01.485Z,0
2018-01-11T04:35:01.449Z,0
2018-01-11T04:36:01.724Z,0
2018-01-11T04:37:01.752Z,0
2018-01-11T04:38:01.747Z,0
2018-01-11T04:39:01.770Z,0
2018-01-11T04:40:01.783Z,0
2018-01-11T04:41:01.545Z,0
2018-01-11T04:42:01.556Z,0
2018-01-11T04:43:01.378Z,0
2018-01-11T04:44:01.600Z,0
2018-01-11T04:45:01.863Z,0
2018-01-11T04:46:01.877Z,0
2018-01-11T04:47:01.638Z,0
2018-01-11T04:48:01.936Z,0
2018-01-11T04:49:01.981Z,0
2018-01-11T04:50:01.668Z,0
2018-01-11T04:51:01.678Z,0
2018-01-11T04:52:01.945Z,0
2018-01-11T04:53:01.712Z,0
2018-01-11T04:54:01.724Z,0
2018-01-11T04:55:01.738Z,0
2018-01-11T04:56:01.505Z,0
2018-01-11T04:57:02.024Z,0
2018-01-11T04:58:01.803Z,0
2018-01-11T04:59:01.901Z,0
2018-01-11T05:00:02.092Z,0
2018-01-11T05:01:01.854Z,0
2018-01-11T05:02:01.860Z,0
2018-01-11T05:03:01.875Z,0
2018-01-11T05:04:02.162Z,0
2018-01-11T05:05:01.653Z,0
2018-01-11T05:06:01.918Z,0
2018-01-11T05:07:02.508Z,0
2018-01-11T05:08:02.201Z,0
2018-01-11T05:09:01.964Z,0
2018-01-11T05:10:01.987Z,0
2018-01-11T05:11:02.250Z,0
2018-01-11T05:12:02.278Z,0
2018-01-11T05:13:02.289Z,0
2018-01-11T05:14:02.310Z,0
2018-01-11T05:15:02.061Z,0
2018-01-11T05:16:02.074Z,0
2018-01-11T05:17:01.844Z,0
2018-01-11T05:18:01.852Z,0
2018-01-11T05:19:02.395Z,0
2018-01-11T05:20:02.402Z,0
2018-01-11T05:21:02.408Z,0
2018-01-11T05:22:02.212Z,0
2018-01-11T05:23:02.179Z,0
2018-01-11T05:24:02.209Z,0
2018-01-11T05:25:02.206Z,0
2018-01-11T05:26:02.218Z,0
2018-01-11T05:27:02.488Z,0
2018-01-11T05:28:02.000Z,0
2018-01-11T05:29:02.262Z,0
2018-01-11T05:30:02.530Z,0
2018-01-11T05:31:02.545Z,0
2018-01-11T05:32:02.060Z,0
2018-01-11T05:33:02.070Z,0
2018-01-11T05:34:02.344Z,0
2018-01-11T05:35:02.608Z,0
2018-01-11T05:36:02.405Z,0
2018-01-11T05:37:02.681Z,0
2018-01-11T05:38:02.399Z,0
2018-01-11T05:39:01.906Z,0
2018-01-11T05:40:02.175Z,0
2018-01-11T05:41:02.198Z,0
2018-01-11T05:42:02.214Z,0
2018-01-11T05:43:02.475Z,0
2018-01-11T05:44:02.489Z,0
2018-01-11T05:45:02.505Z,0
2018-01-11T05:46:02.514Z,0
2018-01-11T05:47:02.290Z,0
2018-01-11T05:48:02.038Z,0
2018-01-11T05:49:02.814Z,0
2018-01-11T05:50:02.316Z,0
2018-01-11T05:51:02.583Z,0
2018-01-11T05:52:02.654Z,0
2018-01-11T05:53:02.866Z,0
2018-01-11T05:54:02.639Z,0
2018-01-11T05:55:02.896Z,0
2018-01-11T05:56:02.907Z,0
2018-01-11T05:57:02.521Z,0
2018-01-11T05:58:02.688Z,0
2018-01-11T05:59:02.708Z,0
2018-01-11T06:00:02.722Z,0
2018-01-11T06:01:02.740Z,0
2018-01-11T06:02:02.749Z,0
2018-01-11T06:03:02.768Z,0
2018-01-11T06:04:03.033Z,0
2018-01-11T06:05:02.803Z,0
2018-01-11T06:06:02.806Z,0
2018-01-11T06:07:02.619Z,0
2018-01-11T06:08:02.833Z,0
2018-01-11T06:09:03.124Z,0
2018-01-11T06:10:02.870Z,0
2018-01-11T06:11:02.876Z,0
2018-01-11T06:12:02.899Z,0
2018-01-11T06:13:02.900Z,0
2018-01-11T06:14:02.921Z,0
2018-01-11T06:15:02.432Z,0
2018-01-11T06:16:02.693Z,0
2018-01-11T06:17:03.235Z,0
2018-01-11T06:18:02.975Z,0
2018-01-11T06:19:03.243Z,0
2018-01-11T06:20:03.002Z,0
2018-01-11T06:21:02.518Z,0
2018-01-11T06:22:03.088Z,0
2018-01-11T06:23:03.052Z,0
2018-01-11T06:24:02.827Z,0
2018-01-11T06:25:02.838Z,0
2018-01-11T06:26:02.846Z,0
2018-01-11T06:27:03.463Z,0
2018-01-11T06:28:03.130Z,0
2018-01-11T06:29:03.160Z,0
2018-01-11T06:30:02.911Z,0
2018-01-11T06:31:03.176Z,0
2018-01-11T06:32:02.940Z,0
2018-01-11T06:33:03.210Z,0
2018-01-11T06:34:03.233Z,4
2018-01-11T06:35:03.500Z,4
2018-01-11T06:36:03.258Z,0
2018-01-11T06:37:03.331Z,4
2018-01-11T06:38:03.295Z,4
2018-01-11T06:39:03.305Z,4
2018-01-11T06:40:03.058Z,4
2018-01-11T06:41:03.329Z,4
2018-01-11T06:42:03.600Z,8
2018-01-11T06:43:03.359Z,8
2018-01-11T06:44:03.396Z,12
2018-01-11T06:45:03.138Z,12
2018-01-11T06:46:03.411Z,12
2018-01-11T06:47:02.920Z,12
2018-01-11T06:48:03.459Z,16
2018-01-11T06:49:03.449Z,16
2018-01-11T06:50:03.217Z,20
2018-01-11T06:51:03.737Z,24
2018-01-11T06:52:03.293Z,24
2018-01-11T06:53:03.782Z,28
2018-01-11T06:54:03.275Z,32
2018-01-11T06:55:03.796Z,36
2018-01-11T06:56:03.573Z,40
2018-01-11T06:57:03.572Z,44
2018-01-11T06:58:03.900Z,52
2018-01-11T06:59:03.606Z,52
2018-01-11T07:00:03.645Z,60
2018-01-11T07:01:03.898Z,64
2018-01-11T07:02:03.656Z,64
2018-01-11T07:03:03.415Z,72
2018-01-11T07:04:03.443Z,76
2018-01-11T07:05:03.957Z,84
2018-01-11T07:06:03.705Z,88
2018-01-11T07:07:03.780Z,92
2018-01-11T07:08:03.742Z,104
2018-01-11T07:09:04.005Z,112
2018-01-11T07:10:03.776Z,120
2018-01-11T07:11:03.799Z,136
2018-01-11T07:12:03.809Z,144
2018-01-11T07:13:03.825Z,164
2018-01-11T07:14:03.584Z,176
2018-01-11T07:15:04.119Z,192
2018-01-11T07:16:03.869Z,208
2018-01-11T07:17:03.875Z,224
2018-01-11T07:18:03.894Z,244
2018-01-11T07:19:03.905Z,256
2018-01-11T07:20:03.926Z,272
2018-01-11T07:21:03.692Z,288
2018-01-11T07:22:04.011Z,304
2018-01-11T07:23:04.033Z,316
2018-01-11T07:24:03.731Z,332
2018-01-11T07:25:03.995Z,356
2018-01-11T07:26:04.312Z,376
2018-01-11T07:27:04.090Z,396
2018-01-11T07:28:04.299Z,412
2018-01-11T07:29:04.324Z,424
2018-01-11T07:30:04.082Z,432
2018-01-11T07:31:04.097Z,436
2018-01-11T07:32:04.118Z,444
2018-01-11T07:33:04.379Z,452
2018-01-11T07:34:04.139Z,464
2018-01-11T07:35:04.413Z,480
2018-01-11T07:36:04.426Z,500
2018-01-11T07:37:03.985Z,520
2018-01-11T07:38:04.456Z,540
2018-01-11T07:39:04.227Z,552
2018-01-11T07:40:04.026Z,568
2018-01-11T07:41:03.999Z,580
2018-01-11T07:42:04.264Z,596
2018-01-11T07:43:04.534Z,604
2018-01-11T07:44:04.042Z,612
2018-01-11T07:45:04.309Z,620
2018-01-11T07:46:04.580Z,620
2018-01-11T07:47:04.340Z,624
2018-01-11T07:48:04.615Z,632
2018-01-11T07:49:04.371Z,644
2018-01-11T07:50:04.647Z,660
2018-01-11T07:51:04.431Z,684
2018-01-11T07:52:04.468Z,712
2018-01-11T07:53:04.684Z,740
2018-01-11T07:54:04.441Z,768
2018-01-11T07:55:04.216Z,792
2018-01-11T07:56:04.233Z,812
2018-01-11T07:57:04.516Z,832
2018-01-11T07:58:04.767Z,844
2018-01-11T07:59:04.274Z,852
2018-01-11T08:00:04.548Z,864
2018-01-11T08:01:04.839Z,880
2018-01-11T08:02:04.577Z,896
2018-01-11T08:03:04.587Z,916
2018-01-11T08:04:04.857Z,940
2018-01-11T08:05:04.366Z,964
2018-01-11T08:06:04.633Z,988
2018-01-11T08:07:04.951Z,1004
2018-01-11T08:08:04.913Z,1024
2018-01-11T08:09:04.927Z,1040
2018-01-11T08:10:04.687Z,1056
2018-01-11T08:11:04.958Z,1072
2018-01-11T08:12:04.471Z,1092
2018-01-11T08:13:04.758Z,1104
2018-01-11T08:14:05.005Z,1116
2018-01-11T08:15:04.781Z,1128
2018-01-11T08:16:04.794Z,1144
2018-01-11T08:17:04.806Z,1168
2018-01-11T08:18:04.826Z,1208
2018-01-11T08:19:04.837Z,1248
2018-01-11T08:20:05.109Z,1296
2018-01-11T08:21:04.368Z,1324
2018-01-11T08:22:04.941Z,1344
2018-01-11T08:23:04.902Z,1364
2018-01-11T08:24:05.177Z,1376
2018-01-11T08:25:04.685Z,1392
2018-01-11T08:26:05.205Z,1420
2018-01-11T08:27:04.711Z,1456
2018-01-11T08:28:04.981Z,1496
2018-01-11T08:29:05.005Z,1532
2018-01-11T08:30:05.269Z,1556
2018-01-11T08:31:05.047Z,1564
2018-01-11T08:32:05.096Z,1568
2018-01-11T08:33:05.060Z,1564
2018-01-11T08:34:05.105Z,1556
2018-01-11T08:35:05.114Z,1540
2018-01-11T08:36:05.361Z,1516
2018-01-11T08:37:04.920Z,1500
2018-01-11T08:38:05.389Z,1496
2018-01-11T08:39:05.154Z,1492
2018-01-11T08:40:05.177Z,1508
2018-01-11T08:41:05.450Z,1528
2018-01-11T08:42:05.256Z,1556
2018-01-11T08:43:05.473Z,1584
2018-01-11T08:44:05.244Z,1596
2018-01-11T08:45:04.746Z,1600
2018-01-11T08:46:05.013Z,1588
2018-01-11T08:47:05.531Z,1584
2018-01-11T08:48:05.308Z,1584
2018-01-11T08:49:05.315Z,1588
2018-01-11T08:50:05.331Z,1600
2018-01-11T08:51:05.603Z,1596
2018-01-11T08:52:05.408Z,1592
2018-01-11T08:53:05.393Z,1584
2018-01-11T08:54:05.387Z,1580
2018-01-11T08:55:05.656Z,1588
2018-01-11T08:56:05.167Z,1612
2018-01-11T08:57:05.438Z,1652
2018-01-11T08:58:05.447Z,1692
2018-01-11T08:59:05.712Z,1720
2018-01-11T09:00:05.725Z,1744
2018-01-11T09:01:05.511Z,1780
2018-01-11T09:02:05.515Z,1836
2018-01-11T09:03:05.808Z,1892
2018-01-11T09:04:05.812Z,1952
2018-01-11T09:05:05.331Z,2016
2018-01-11T09:06:05.582Z,2080
2018-01-11T09:07:05.656Z,2128
2018-01-11T09:08:05.612Z,2164
2018-01-11T09:09:05.373Z,2256
2018-01-11T09:10:05.389Z,2416
2018-01-11T09:11:05.917Z,2584
2018-01-11T09:12:05.961Z,2656
2018-01-11T09:13:05.941Z,2700
2018-01-11T09:14:05.706Z,2752
2018-01-11T09:15:05.734Z,2768
2018-01-11T09:16:05.484Z,2744
2018-01-11T09:17:05.847Z,2724
2018-01-11T09:18:06.037Z,2752
2018-01-11T09:19:06.036Z,2768
2018-01-11T09:20:05.799Z,2712
2018-01-11T09:21:06.058Z,2588
2018-01-11T09:22:06.182Z,2484
2018-01-11T09:23:06.102Z,2448
2018-01-11T09:24:05.865Z,2480
2018-01-11T09:25:06.128Z,2532
2018-01-11T09:26:05.895Z,2584
2018-01-11T09:27:05.910Z,2596
2018-01-11T09:28:06.183Z,2576
2018-01-11T09:29:05.942Z,2548
2018-01-11T09:30:05.704Z,2520
2018-01-11T09:31:05.973Z,2520
2018-01-11T09:32:06.239Z,2564
2018-01-11T09:33:06.002Z,2644
2018-01-11T09:34:06.294Z,2732
2018-01-11T09:35:06.039Z,2788
2018-01-11T09:36:06.306Z,2796
2018-01-11T09:37:06.107Z,2804
2018-01-11T09:38:06.083Z,2788
2018-01-11T09:39:06.354Z,2780
2018-01-11T09:40:06.384Z,2768
2018-01-11T09:41:05.726Z,2756
2018-01-11T09:42:05.643Z,2800
2018-01-11T09:43:05.914Z,2892
2018-01-11T09:44:06.185Z,2956
2018-01-11T09:45:06.232Z,2940
2018-01-11T09:46:06.220Z,2880
2018-01-11T09:47:06.215Z,2832
2018-01-11T09:48:06.236Z,2800
2018-01-11T09:49:06.526Z,2804
2018-01-11T09:50:06.528Z,2832
2018-01-11T09:51:06.395Z,2872
2018-01-11T09:52:06.309Z,2952
2018-01-11T09:53:06.588Z,3056
2018-01-11T09:54:06.090Z,3152
2018-01-11T09:55:06.411Z,3200
2018-01-11T09:56:06.431Z,3224
2018-01-11T09:57:06.392Z,3260
2018-01-11T09:58:06.657Z,3320
2018-01-11T09:59:06.422Z,3340
2018-01-11T10:00:06.451Z,3292
2018-01-11T10:01:06.504Z,3216
2018-01-11T10:02:06.725Z,3108
2018-01-11T10:03:06.232Z,2968
2018-01-11T10:04:06.762Z,2840
2018-01-11T10:05:06.778Z,2748
2018-01-11T10:06:06.588Z,2704
2018-01-11T10:07:06.550Z,2712
2018-01-11T10:08:06.569Z,2780
2018-01-11T10:09:06.886Z,2888
2018-01-11T10:10:06.861Z,2992
2018-01-11T10:11:06.418Z,3028
2018-01-11T10:12:06.887Z,3060
2018-01-11T10:13:06.907Z,3320
2018-01-11T10:14:06.673Z,3600
2018-01-11T10:15:06.687Z,3520
2018-01-11T10:16:06.692Z,3388
2018-01-11T10:17:06.784Z,3124
2018-01-11T10:18:06.998Z,2880
2018-01-11T10:19:06.502Z,2752
2018-01-11T10:20:06.767Z,2684
2018-01-11T10:21:06.800Z,2636
2018-01-11T10:22:07.059Z,2592
2018-01-11T10:23:07.073Z,2604
2018-01-11T10:24:06.839Z,2648
2018-01-11T10:25:07.145Z,2752
2018-01-11T10:26:07.171Z,2900
2018-01-11T10:27:06.880Z,3136
2018-01-11T10:28:06.905Z,3396
2018-01-11T10:29:07.182Z,3608
2018-01-11T10:30:07.200Z,3744
2018-01-11T10:31:06.948Z,3856
2018-01-11T10:32:07.225Z,4064
2018-01-11T10:33:06.735Z,4100
2018-01-11T10:34:07.259Z,3968
2018-01-11T10:35:06.764Z,3852
2018-01-11T10:36:06.784Z,3852
2018-01-11T10:37:07.051Z,3964
2018-01-11T10:38:07.068Z,4088
2018-01-11T10:39:06.835Z,4024
2018-01-11T10:40:07.102Z,3908
2018-01-11T10:41:07.171Z,3768
2018-01-11T10:42:07.386Z,3632
2018-01-11T10:43:07.148Z,3548
2018-01-11T10:44:07.164Z,3496
2018-01-11T10:45:06.933Z,3532
2018-01-11T10:46:07.203Z,3592
2018-01-11T10:47:06.970Z,3616
2018-01-11T10:48:07.232Z,3604
2018-01-11T10:49:06.993Z,3596
2018-01-11T10:50:07.515Z,3620
2018-01-11T10:51:07.527Z,3640
2018-01-11T10:52:07.042Z,3584
2018-01-11T10:53:07.059Z,3440
2018-01-11T10:54:07.335Z,3248
2018-01-11T10:55:07.345Z,3136
2018-01-11T10:56:07.479Z,3208
2018-01-11T10:57:07.131Z,3488
2018-01-11T10:58:07.397Z,3876
2018-01-11T10:59:07.420Z,4172
2018-01-11T11:00:06.927Z,4200
2018-01-11T11:01:07.452Z,4088
2018-01-11T11:02:07.253Z,4068
2018-01-11T11:03:07.744Z,4196
2018-01-11T11:04:07.515Z,4392
2018-01-11T11:05:07.271Z,4480
2018-01-11T11:06:07.793Z,4316
2018-01-11T11:07:07.560Z,4168
2018-01-11T11:08:07.634Z,4156
2018-01-11T11:09:07.593Z,4192
2018-01-11T11:10:07.369Z,4088
2018-01-11T11:11:07.444Z,3892
2018-01-11T11:12:07.637Z,3756
2018-01-11T11:13:07.655Z,3800
2018-01-11T11:14:07.930Z,3944
2018-01-11T11:15:07.695Z,4060
2018-01-11T11:16:08.063Z,3988
2018-01-11T11:17:07.732Z,3768
2018-01-11T11:18:07.489Z,3732
2018-01-11T11:19:08.025Z,3900
2018-01-11T11:20:07.809Z,4100
2018-01-11T11:21:07.594Z,4024
2018-01-11T11:22:07.558Z,3732
2018-01-11T11:23:07.847Z,3460
2018-01-11T11:24:07.607Z,3416
2018-01-11T11:25:07.610Z,3544
2018-01-11T11:26:08.196Z,3748
2018-01-11T11:27:08.152Z,3996
2018-01-11T11:28:08.178Z,4112
2018-01-11T11:29:08.191Z,4200
2018-01-11T11:30:07.698Z,4316
2018-01-11T11:31:07.968Z,4448
2018-01-11T11:32:07.987Z,4608
2018-01-11T11:33:08.007Z,4668
2018-01-11T11:34:08.025Z,4600
2018-01-11T11:35:08.044Z,4568
2018-01-11T11:36:08.062Z,4508
2018-01-11T11:37:07.634Z,4440
2018-01-11T11:38:08.087Z,4372
2018-01-11T11:39:08.110Z,4280
2018-01-11T11:40:08.380Z,4276
2018-01-11T11:41:08.393Z,4360
2018-01-11T11:42:07.950Z,4512
2018-01-11T11:43:08.424Z,4588
2018-01-11T11:44:08.184Z,4516
2018-01-11T11:45:08.439Z,4272
2018-01-11T11:46:08.478Z,4048
2018-01-11T11:47:08.556Z,3832
2018-01-11T11:48:08.248Z,3684
2018-01-11T11:49:08.282Z,3572
2018-01-11T11:50:08.287Z,3448
2018-01-11T11:51:08.560Z,3300
2018-01-11T11:52:08.122Z,3188
2018-01-11T11:53:08.598Z,3124
2018-01-11T11:54:08.359Z,3116
2018-01-11T11:55:08.633Z,3160
2018-01-11T11:56:08.397Z,3180
2018-01-11T11:57:08.210Z,3140
2018-01-11T11:58:08.423Z,3056
2018-01-11T11:59:08.430Z,2940
2018-01-11T12:00:08.451Z,2824
2018-01-11T12:01:08.755Z,2756
2018-01-11T12:02:08.747Z,2720
2018-01-11T12:03:08.765Z,2580
2018-01-11T12:04:08.787Z,2324
2018-01-11T12:05:08.296Z,2116
2018-01-11T12:06:08.623Z,2004
2018-01-11T12:07:08.837Z,2000
2018-01-11T12:08:08.447Z,2156
2018-01-11T12:09:08.612Z,2404
2018-01-11T12:10:08.896Z,2440
2018-01-11T12:11:08.924Z,2240
2018-01-11T12:12:08.724Z,1996
2018-01-11T12:13:08.429Z,1768
2018-01-11T12:14:08.449Z,1648
2018-01-11T12:15:08.976Z,1636
2018-01-11T12:16:08.726Z,1688
2018-01-11T12:17:08.489Z,1768
2018-01-11T12:18:09.012Z,1840
2018-01-11T12:19:08.528Z,1872
2018-01-11T12:20:09.051Z,1900
2018-01-11T12:21:09.080Z,1900
2018-01-11T12:22:09.179Z,1872
2018-01-11T12:23:09.114Z,1836
2018-01-11T12:24:08.617Z,1848
2018-01-11T12:25:08.885Z,1988
2018-01-11T12:26:08.914Z,2068
2018-01-11T12:27:09.020Z,2100
2018-01-11T12:28:08.434Z,2100
2018-01-11T12:29:08.989Z,2196
2018-01-11T12:30:08.975Z,2432
2018-01-11T12:31:08.736Z,2696
2018-01-11T12:32:08.507Z,2844
2018-01-11T12:33:09.288Z,2920
2018-01-11T12:34:09.041Z,3088
2018-01-11T12:35:08.801Z,3136
2018-01-11T12:36:08.815Z,3152
2018-01-11T12:37:09.087Z,3220
2018-01-11T12:38:09.417Z,3280
2018-01-11T12:39:09.371Z,3248
2018-01-11T12:40:09.145Z,3196
2018-01-11T12:41:09.274Z,3212
2018-01-11T12:42:09.222Z,3232
2018-01-11T12:43:09.461Z,3308
2018-01-11T12:44:08.952Z,3280
2018-01-11T12:45:09.482Z,3148
2018-01-11T12:46:09.487Z,3092
2018-01-11T12:47:09.511Z,3168
2018-01-11T12:48:09.279Z,3352
2018-01-11T12:49:09.289Z,3488
2018-01-11T12:50:09.592Z,3680
2018-01-11T12:51:09.327Z,3892
2018-01-11T12:52:09.602Z,4084
2018-01-11T12:53:09.107Z,4116
2018-01-11T12:54:09.376Z,3804
2018-01-11T12:55:09.397Z,3524
2018-01-11T12:56:09.663Z,3456
2018-01-11T12:57:09.331Z,3464
2018-01-11T12:58:09.474Z,3500
2018-01-11T12:59:09.456Z,3340
2018-01-11T13:00:09.484Z,3088
2018-01-11T13:01:09.491Z,2940
2018-01-11T13:02:09.543Z,2632
2018-01-11T13:03:09.781Z,2348
2018-01-11T13:04:09.296Z,2388
2018-01-11T13:05:09.832Z,2236
2018-01-11T13:06:09.838Z,2036
2018-01-11T13:07:09.860Z,1972
2018-01-11T13:08:09.366Z,1828
2018-01-11T13:09:09.884Z,1716
2018-01-11T13:10:09.652Z,1692
2018-01-11T13:11:09.959Z,1708
2018-01-11T13:12:09.676Z,1728
2018-01-11T13:13:09.750Z,1736
2018-01-11T13:14:09.962Z,1752
2018-01-11T13:15:09.743Z,1824
2018-01-11T13:16:09.742Z,1876
2018-01-11T13:17:09.760Z,1928
2018-01-11T13:18:10.031Z,1996
2018-01-11T13:19:09.791Z,2052
2018-01-11T13:20:09.307Z,2080
2018-01-11T13:21:10.095Z,2080
2018-01-11T13:22:09.849Z,2080
2018-01-11T13:23:09.897Z,2072
2018-01-11T13:24:09.890Z,2060
2018-01-11T13:25:09.908Z,2040
2018-01-11T13:26:09.920Z,2040
2018-01-11T13:27:09.942Z,2036
2018-01-11T13:28:09.955Z,2040
2018-01-11T13:29:10.274Z,2036
2018-01-11T13:30:10.259Z,2008
2018-01-11T13:31:10.000Z,1984
2018-01-11T13:32:10.020Z,1992
2018-01-11T13:33:10.048Z,2032
2018-01-11T13:34:10.312Z,2104
2018-01-11T13:35:09.563Z,2180
2018-01-11T13:36:10.081Z,2248
2018-01-11T13:37:10.128Z,2296
2018-01-11T13:38:10.116Z,2344
2018-01-11T13:39:10.190Z,2432
2018-01-11T13:40:10.421Z,2548
2018-01-11T13:41:09.922Z,2640
2018-01-11T13:42:09.687Z,2700
2018-01-11T13:43:10.225Z,2764
2018-01-11T13:44:10.531Z,2860
2018-01-11T13:45:10.502Z,2952
2018-01-11T13:46:10.512Z,2924
2018-01-11T13:47:10.548Z,2744
2018-01-11T13:48:10.289Z,2648
2018-01-11T13:49:10.060Z,2632
2018-01-11T13:50:10.329Z,2668
2018-01-11T13:51:10.351Z,2716
2018-01-11T13:52:10.364Z,2676
2018-01-11T13:53:10.693Z,2556
2018-01-11T13:54:10.409Z,2516
2018-01-11T13:55:09.909Z,2472
2018-01-11T13:56:10.681Z,2440
2018-01-11T13:57:10.447Z,2448
2018-01-11T13:58:10.462Z,2472
2018-01-11T13:59:10.532Z,2508
2018-01-11T14:00:10.495Z,2576
2018-01-11T14:01:10.510Z,2672
2018-01-11T14:02:10.275Z,2748
2018-01-11T14:03:10.804Z,2788